Time;durP1;ratioP1;P1;durP2;ratioP2;P2;SDS_P1;SDS_P2;PMS_P1;PMS_P2;Temp;Humidity;BMP_temperature;BMP_pressure;BME280_temperature;BME280_humidity;BME280_pressure;Samples;Min_cycle;Max_cycle;Signal;HPM_P1;HPM_P2
2022/08/09 00:00:45;;;;;;;;;;;13.40;99.90;;;;;;5050998;28;19916;-73
2022/08/09 00:03:10;;;;;;;;;;;13.30;99.90;;;;;;5049821;28;20022;-73
2022/08/09 00:05:36;;;;;;;;;;;13.30;99.90;;;;;;5050981;28;19952;-73
2022/08/09 00:08:01;;;;;;;;;;;13.30;99.90;;;;;;5050945;28;19952;-73
2022/08/09 00:10:27;;;;;;;;;;;13.30;99.90;;;;;;5049813;28;19952;-73
2022/08/09 00:12:52;;;;;;;;;;;13.30;99.90;;;;;;5050231;28;19909;-73
2022/08/09 00:15:18;;;;;;;;;;;13.30;99.90;;;;;;5056355;28;19908;-73
2022/08/09 00:17:43;;;;;;;;;;;13.30;99.90;;;;;;5050480;28;20290;-74
2022/08/09 00:20:09;;;;;;;;;;;13.20;99.90;;;;;;5050574;28;19970;-73
2022/08/09 00:22:35;;;;;;;;;;;13.10;99.90;;;;;;5049975;28;19922;-73
2022/08/09 00:25:00;;;;;;;;;;;13.20;99.90;;;;;;5047000;28;19932;-73
2022/08/09 00:27:26;;;;;;;;;;;13.10;99.90;;;;;;5050863;28;19909;-73
2022/08/09 00:29:51;;;;;;;;;;;13.10;99.90;;;;;;5050953;28;19935;-73
2022/08/09 00:32:17;;;;;;;;;;;13.10;99.90;;;;;;5050300;28;20374;-73
2022/08/09 00:34:43;;;;;;;;;;;13.00;99.90;;;;;;5049793;28;20268;-73
2022/08/09 00:37:08;;;;;;;;;;;13.00;99.90;;;;;;5050864;28;19944;-73
2022/08/09 00:39:34;;;;;;;;;;;12.90;99.90;;;;;;5049432;28;20405;-73
2022/08/09 00:41:59;;;;;;;;;;;12.90;99.90;;;;;;5050047;28;19936;-73
2022/08/09 00:44:25;;;;;;;;;;;12.90;99.90;;;;;;5057926;28;19999;-73
2022/08/09 00:46:50;;;;;;;;;;;12.90;99.90;;;;;;5054296;28;19909;-73
2022/08/09 00:49:16;;;;;;;;;;;12.80;99.90;;;;;;5053740;28;20350;-73
2022/08/09 00:51:41;;;;;;;;;;;12.80;99.90;;;;;;5053709;28;19909;-72
2022/08/09 00:54:07;;;;;;;;;;;12.70;99.90;;;;;;5053847;28;19909;-73
2022/08/09 00:56:32;;;;;;;;;;;12.70;99.90;;;;;;5054151;28;20305;-73
2022/08/09 00:58:58;;;;;;;;;;;12.70;99.90;;;;;;5054070;28;20247;-73
2022/08/09 01:01:26;;;;;;;;;;;12.70;99.90;;;;;;5053552;28;19971;-73
2022/08/09 01:03:54;;;;;;;;;;;12.60;99.90;;;;;;5046657;28;19962;-73
2022/08/09 01:06:25;;;;;;;;;;;12.50;99.90;;;;;;5047693;28;19909;-73
2022/08/09 01:08:59;;;;;;;;;;;12.40;99.90;;;;;;5052535;28;19923;-73
2022/08/09 01:11:27;;;;;;;;;;;12.50;99.90;;;;;;5052324;28;19965;-73
2022/08/09 01:13:57;;;;;;;;;;;12.50;99.90;;;;;;5051028;28;19909;-73
2022/08/09 01:16:25;;;;;;;;;;;12.50;99.90;;;;;;5053412;28;20388;-73
2022/08/09 01:18:51;;;;;;;;;;;12.40;99.90;;;;;;5053427;28;19962;-72
2022/08/09 01:21:35;;;;;;;;;;;12.40;99.90;;;;;;5051908;28;19952;-73
2022/08/09 01:24:27;;;;;;;;;;;12.30;99.90;;;;;;5053123;28;19944;-73
2022/08/09 01:26:55;;;;;;;;;;;12.40;99.90;;;;;;5040448;28;19913;-74
2022/08/09 01:29:26;;;;;;;;;;;12.30;99.90;;;;;;5053337;28;19909;-74
2022/08/09 01:31:54;;;;;;;;;;;12.30;99.90;;;;;;5053130;28;19909;-73
2022/08/09 01:34:20;;;;;;;;;;;12.20;99.90;;;;;;5052701;28;19913;-73
2022/08/09 01:36:47;;;;;;;;;;;12.30;99.90;;;;;;5052157;28;19913;-73
2022/08/09 01:39:14;;;;;;;;;;;12.20;99.90;;;;;;5052751;28;19935;-73
2022/08/09 01:41:40;;;;;;;;;;;12.20;99.90;;;;;;5053002;28;20263;-73
2022/08/09 01:44:06;;;;;;;;;;;12.20;99.90;;;;;;5050246;28;19913;-73
2022/08/09 01:46:40;;;;;;;;;;;12.10;99.90;;;;;;5053339;28;20066;-73
2022/08/09 01:49:08;;;;;;;;;;;12.10;99.90;;;;;;5052792;28;20002;-73
2022/08/09 01:51:34;;;;;;;;;;;12.00;99.90;;;;;;5052989;28;19919;-73
2022/08/09 01:54:04;;;;;;;;;;;11.90;99.90;;;;;;5051914;28;20362;-73
2022/08/09 01:56:30;;;;;;;;;;;11.90;99.90;;;;;;5051892;28;19909;-73
2022/08/09 01:58:57;;;;;;;;;;;12.00;99.90;;;;;;5052952;28;19916;-73
2022/08/09 02:01:24;;;;;;;;;;;12.00;99.90;;;;;;5052311;28;20326;-73
2022/08/09 02:03:50;;;;;;;;;;;11.90;99.90;;;;;;5052168;28;20175;-73
2022/08/09 02:06:16;;;;;;;;;;;11.80;99.90;;;;;;5052787;28;20366;-73
2022/08/09 02:08:44;;;;;;;;;;;11.60;99.90;;;;;;5052679;28;19928;-73
2022/08/09 02:11:10;;;;;;;;;;;11.50;99.90;;;;;;5052731;28;19909;-73
2022/08/09 02:13:36;;;;;;;;;;;11.60;99.90;;;;;;5051281;28;19913;-73
2022/08/09 02:16:02;;;;;;;;;;;11.70;99.90;;;;;;5054157;28;19915;-73
2022/08/09 02:18:29;;;;;;;;;;;11.70;99.90;;;;;;5052178;28;19915;-73
2022/08/09 02:20:57;;;;;;;;;;;11.60;99.90;;;;;;5052400;28;19916;-73
2022/08/09 02:23:37;;;;;;;;;;;11.50;99.90;;;;;;5051695;28;19909;-73
2022/08/09 02:26:03;;;;;;;;;;;11.50;99.90;;;;;;5052421;28;20392;-73
2022/08/09 02:28:37;;;;;;;;;;;11.50;99.90;;;;;;5052195;28;19913;-73
2022/08/09 02:31:21;;;;;;;;;;;11.50;99.90;;;;;;5052305;28;19931;-73
2022/08/09 02:33:48;;;;;;;;;;;11.40;99.90;;;;;;5051430;28;19915;-73
2022/08/09 02:36:16;;;;;;;;;;;11.40;99.90;;;;;;5052455;28;20317;-73
2022/08/09 02:38:44;;;;;;;;;;;11.40;99.90;;;;;;5052158;28;19956;-73
2022/08/09 02:41:10;;;;;;;;;;;11.40;99.90;;;;;;5052240;28;19917;-73
2022/08/09 02:43:38;;;;;;;;;;;11.40;99.90;;;;;;5053690;28;20104;-73
2022/08/09 02:46:05;;;;;;;;;;;11.40;99.90;;;;;;5052153;28;19909;-74
2022/08/09 02:48:32;;;;;;;;;;;11.40;99.90;;;;;;5051761;28;20286;-74
2022/08/09 02:50:59;;;;;;;;;;;11.40;99.90;;;;;;5049821;28;20015;-75
2022/08/09 02:53:30;;;;;;;;;;;11.40;99.90;;;;;;5045898;28;19924;-75
2022/08/09 02:55:57;;;;;;;;;;;11.30;99.90;;;;;;5051846;28;19912;-75
2022/08/09 02:58:25;;;;;;;;;;;11.30;99.90;;;;;;5051660;28;19951;-75
2022/08/09 03:00:51;;;;;;;;;;;11.30;99.90;;;;;;5052030;28;20322;-75
2022/08/09 03:03:17;;;;;;;;;;;11.30;99.90;;;;;;5052462;28;19916;-75
2022/08/09 03:05:44;;;;;;;;;;;11.10;99.90;;;;;;5051728;28;20190;-75
2022/08/09 03:08:11;;;;;;;;;;;11.00;99.90;;;;;;5050429;28;20377;-75
2022/08/09 03:10:37;;;;;;;;;;;11.10;99.90;;;;;;5051514;28;19915;-75
2022/08/09 03:13:03;;;;;;;;;;;11.20;99.90;;;;;;5050964;28;19909;-75
2022/08/09 03:15:28;;;;;;;;;;;11.30;99.90;;;;;;5051030;28;19909;-75
2022/08/09 03:17:54;;;;;;;;;;;11.20;99.90;;;;;;5051350;28;20377;-75
2022/08/09 03:20:20;;;;;;;;;;;11.20;99.90;;;;;;5051481;28;19912;-75
2022/08/09 03:22:46;;;;;;;;;;;11.10;99.90;;;;;;5051139;28;19917;-75
2022/08/09 03:25:12;;;;;;;;;;;11.10;99.90;;;;;;5051291;28;19909;-75
2022/08/09 03:27:39;;;;;;;;;;;11.10;99.90;;;;;;5051330;28;19916;-75
2022/08/09 03:30:05;;;;;;;;;;;11.20;99.90;;;;;;5050257;28;19916;-75
2022/08/09 03:32:32;;;;;;;;;;;11.20;99.90;;;;;;5051185;28;20263;-75
2022/08/09 03:34:59;;;;;;;;;;;11.10;99.90;;;;;;5058637;28;19916;-75
2022/08/09 03:37:24;;;;;;;;;;;11.20;99.90;;;;;;5051619;28;19955;-75
2022/08/09 03:39:50;;;;;;;;;;;11.10;99.90;;;;;;5051434;28;19967;-75
2022/08/09 03:42:15;;;;;;;;;;;11.20;99.90;;;;;;5050925;28;19932;-75
2022/08/09 03:44:41;;;;;;;;;;;11.10;99.90;;;;;;5051154;28;19920;-75
2022/08/09 03:47:07;;;;;;;;;;;11.10;99.90;;;;;;5051537;28;19995;-75
2022/08/09 03:49:33;;;;;;;;;;;11.00;99.90;;;;;;5051191;28;19908;-75
2022/08/09 03:51:59;;;;;;;;;;;11.00;99.90;;;;;;5051253;28;19913;-75
2022/08/09 03:54:26;;;;;;;;;;;11.00;99.90;;;;;;5050946;28;20358;-75
2022/08/09 03:56:52;;;;;;;;;;;11.00;99.90;;;;;;5051105;28;19952;-75
2022/08/09 03:59:18;;;;;;;;;;;11.00;99.90;;;;;;5051263;28;20351;-75
2022/08/09 04:01:44;;;;;;;;;;;11.00;99.90;;;;;;5050651;28;20012;-75
2022/08/09 04:04:11;;;;;;;;;;;11.00;99.90;;;;;;5049087;28;19944;-75
2022/08/09 04:06:37;;;;;;;;;;;11.00;99.90;;;;;;5051289;28;20000;-75
2022/08/09 04:09:05;;;;;;;;;;;10.90;99.90;;;;;;5051064;28;19916;-75
2022/08/09 04:11:54;;;;;;;;;;;10.80;99.90;;;;;;5049191;28;19982;-75
2022/08/09 04:14:21;;;;;;;;;;;10.80;99.90;;;;;;5048410;28;19909;-75
2022/08/09 04:16:46;;;;;;;;;;;11.00;99.90;;;;;;5051009;28;19909;-75
2022/08/09 04:19:12;;;;;;;;;;;10.90;99.90;;;;;;5046593;28;19909;-75
2022/08/09 04:21:38;;;;;;;;;;;11.00;99.90;;;;;;5054195;28;19913;-75
2022/08/09 04:24:04;;;;;;;;;;;11.00;99.90;;;;;;5053381;28;20312;-74
2022/08/09 04:26:29;;;;;;;;;;;11.10;99.90;;;;;;5054935;28;19909;-75
2022/08/09 04:28:54;;;;;;;;;;;11.20;99.90;;;;;;5054785;28;19913;-74
2022/08/09 04:31:20;;;;;;;;;;;11.10;99.90;;;;;;5054422;28;20381;-75
2022/08/09 04:33:45;;;;;;;;;;;11.10;99.90;;;;;;5053902;28;19913;-75
2022/08/09 04:36:11;;;;;;;;;;;11.10;99.90;;;;;;5054766;28;19908;-75
2022/08/09 04:38:36;;;;;;;;;;;11.00;99.90;;;;;;5054876;28;19913;-75
2022/08/09 04:41:02;;;;;;;;;;;11.10;99.90;;;;;;5055166;28;19913;-74
2022/08/09 04:43:27;;;;;;;;;;;11.10;99.90;;;;;;5053324;28;19909;-75
2022/08/09 04:45:53;;;;;;;;;;;11.10;99.90;;;;;;5054918;28;20439;-75
2022/08/09 04:48:19;;;;;;;;;;;11.10;99.90;;;;;;5053112;28;20413;-75
2022/08/09 04:50:44;;;;;;;;;;;11.10;99.90;;;;;;5054341;28;19952;-75
2022/08/09 04:53:10;;;;;;;;;;;11.20;99.90;;;;;;5053195;28;20434;-75
2022/08/09 04:55:36;;;;;;;;;;;11.20;99.90;;;;;;5054248;28;19919;-75
2022/08/09 04:58:02;;;;;;;;;;;11.30;99.90;;;;;;5054338;28;19909;-75
2022/08/09 05:00:28;;;;;;;;;;;11.50;99.90;;;;;;5054595;28;20316;-75
2022/08/09 05:02:55;;;;;;;;;;;11.60;99.90;;;;;;5053658;28;19913;-75
2022/08/09 05:05:21;;;;;;;;;;;11.60;99.90;;;;;;5053384;28;19915;-75
2022/08/09 05:07:47;;;;;;;;;;;11.60;99.90;;;;;;5053964;28;19913;-75
2022/08/09 05:10:13;;;;;;;;;;;11.70;99.90;;;;;;5053998;28;19909;-75
2022/08/09 05:12:39;;;;;;;;;;;11.70;99.90;;;;;;5052646;28;19917;-75
2022/08/09 05:15:05;;;;;;;;;;;11.80;99.90;;;;;;5052003;28;20277;-75
2022/08/09 05:17:30;;;;;;;;;;;11.90;99.90;;;;;;5054116;28;20358;-75
2022/08/09 05:19:56;;;;;;;;;;;12.00;99.90;;;;;;5049018;28;19909;-75
2022/08/09 05:22:21;;;;;;;;;;;12.00;99.90;;;;;;5064360;28;20374;-75
2022/08/09 05:24:47;;;;;;;;;;;12.10;99.90;;;;;;5051684;28;19909;-75
2022/08/09 05:27:12;;;;;;;;;;;12.30;99.90;;;;;;5053612;28;19909;-75
2022/08/09 05:29:38;;;;;;;;;;;12.40;99.90;;;;;;5052940;28;20396;-75
2022/08/09 05:32:03;;;;;;;;;;;12.60;99.90;;;;;;5052533;28;20002;-75
2022/08/09 05:34:30;;;;;;;;;;;12.70;99.90;;;;;;5052832;28;19909;-75
2022/08/09 05:36:56;;;;;;;;;;;12.70;99.90;;;;;;5053595;28;19920;-75
2022/08/09 05:39:24;;;;;;;;;;;12.90;99.90;;;;;;5053723;28;19943;-75
2022/08/09 05:41:50;;;;;;;;;;;12.90;99.90;;;;;;5053011;28;20003;-75
2022/08/09 05:44:16;;;;;;;;;;;13.10;99.90;;;;;;5052852;28;19952;-75
2022/08/09 05:46:41;;;;;;;;;;;13.20;99.90;;;;;;5053197;28;19924;-75
2022/08/09 05:49:07;;;;;;;;;;;13.30;99.90;;;;;;5053387;28;19909;-75
2022/08/09 05:51:32;;;;;;;;;;;13.50;99.90;;;;;;5055314;28;19913;-75
2022/08/09 05:53:58;;;;;;;;;;;13.60;99.90;;;;;;5052504;28;20274;-75
2022/08/09 05:56:24;;;;;;;;;;;13.80;99.90;;;;;;5053088;28;19909;-75
2022/08/09 05:58:50;;;;;;;;;;;14.10;99.90;;;;;;5053364;28;19920;-75
2022/08/09 06:01:15;;;;;;;;;;;14.30;99.90;;;;;;5052532;28;19921;-75
2022/08/09 06:03:41;;;;;;;;;;;14.30;99.90;;;;;;5052104;28;19955;-75
2022/08/09 06:06:06;;;;;;;;;;;14.40;99.90;;;;;;5053164;28;20008;-75
2022/08/09 06:08:32;;;;;;;;;;;14.60;99.90;;;;;;5052888;28;20057;-75
2022/08/09 06:10:57;;;;;;;;;;;14.70;99.90;;;;;;5052674;28;19959;-75
2022/08/09 06:13:23;;;;;;;;;;;14.70;99.90;;;;;;5051731;28;20336;-75
2022/08/09 06:15:49;;;;;;;;;;;14.80;99.90;;;;;;5052533;28;19912;-75
2022/08/09 06:18:15;;;;;;;;;;;15.00;99.90;;;;;;5052051;28;19909;-75
2022/08/09 06:20:40;;;;;;;;;;;15.30;99.90;;;;;;5051593;28;19909;-75
2022/08/09 06:23:06;;;;;;;;;;;15.70;99.90;;;;;;5051273;28;20372;-76
2022/08/09 06:25:32;;;;;;;;;;;15.80;99.90;;;;;;5052234;28;20325;-75
2022/08/09 06:27:59;;;;;;;;;;;15.80;99.90;;;;;;5052265;28;20362;-76
2022/08/09 06:30:25;;;;;;;;;;;16.00;99.90;;;;;;5052281;28;19913;-75
2022/08/09 06:32:51;;;;;;;;;;;16.30;99.90;;;;;;5051798;28;19954;-75
2022/08/09 06:35:17;;;;;;;;;;;16.30;99.90;;;;;;5039539;28;20298;-75
2022/08/09 06:37:43;;;;;;;;;;;16.40;99.90;;;;;;5052116;28;20007;-76
2022/08/09 06:40:09;;;;;;;;;;;16.40;99.90;;;;;;5051873;28;20465;-76
2022/08/09 06:42:35;;;;;;;;;;;16.50;99.90;;;;;;5051109;28;19916;-76
2022/08/09 06:45:00;;;;;;;;;;;16.70;99.90;;;;;;5051335;28;19959;-75
2022/08/09 06:47:26;;;;;;;;;;;16.80;99.90;;;;;;5051678;28;19912;-75
2022/08/09 06:49:52;;;;;;;;;;;16.90;99.90;;;;;;5050638;28;19912;-75
2022/08/09 06:52:18;;;;;;;;;;;17.00;99.90;;;;;;5051245;28;19910;-75
2022/08/09 06:54:43;;;;;;;;;;;17.20;99.90;;;;;;5051182;28;19948;-75
2022/08/09 06:57:10;;;;;;;;;;;17.40;99.90;;;;;;5050531;28;19963;-75
2022/08/09 06:59:36;;;;;;;;;;;17.50;99.90;;;;;;5051720;28;20419;-75
2022/08/09 07:02:02;;;;;;;;;;;17.80;99.90;;;;;;5051155;28;19916;-75
2022/08/09 07:04:27;;;;;;;;;;;18.00;99.90;;;;;;5047686;28;19909;-76
2022/08/09 07:06:53;;;;;;;;;;;18.10;99.90;;;;;;5048353;28;19909;-77
2022/08/09 07:09:18;;;;;;;;;;;18.30;99.90;;;;;;5049138;28;20305;-75
2022/08/09 07:11:44;;;;;;;;;;;18.50;99.90;;;;;;5045262;28;19909;-75
2022/08/09 07:14:13;;;;;;;;;;;19.90;99.90;;;;;;5049405;28;19921;-76
2022/08/09 07:16:38;;;;;;;;;;;20.10;99.90;;;;;;5045444;28;20343;-76
2022/08/09 07:19:04;;;;;;;;;;;20.20;99.90;;;;;;5054357;28;20007;-76
2022/08/09 07:21:30;;;;;;;;;;;20.10;99.90;;;;;;5047566;28;19913;-75
2022/08/09 07:23:55;;;;;;;;;;;20.20;99.50;;;;;;5050564;28;20039;-75
2022/08/09 07:26:21;;;;;;;;;;;20.30;98.30;;;;;;5049489;28;19909;-76
2022/08/09 07:28:46;;;;;;;;;;;21.90;97.10;;;;;;5053713;28;19908;-76
2022/08/09 07:31:12;;;;;;;;;;;23.60;92.60;;;;;;5050041;28;20389;-77
2022/08/09 07:33:37;;;;;;;;;;;24.50;89.20;;;;;;5046080;28;19909;-76
2022/08/09 07:36:03;;;;;;;;;;;25.40;83.50;;;;;;5049893;28;19954;-76
2022/08/09 07:38:28;;;;;;;;;;;26.00;83.30;;;;;;5050589;28;19915;-76
2022/08/09 07:40:54;;;;;;;;;;;26.50;79.80;;;;;;5050393;28;19908;-77
2022/08/09 07:43:19;;;;;;;;;;;26.40;78.60;;;;;;5049853;28;19909;-76
2022/08/09 07:45:45;;;;;;;;;;;26.50;77.80;;;;;;5050707;28;19912;-76
2022/08/09 07:48:11;;;;;;;;;;;26.80;76.00;;;;;;5049484;28;19932;-76
2022/08/09 07:50:39;;;;;;;;;;;26.70;74.00;;;;;;5050113;28;20358;-76
2022/08/09 07:53:05;;;;;;;;;;;26.40;73.70;;;;;;5049018;28;19917;-77
2022/08/09 07:55:31;;;;;;;;;;;26.40;77.00;;;;;;5054152;28;19916;-76
2022/08/09 07:57:57;;;;;;;;;;;27.10;75.40;;;;;;5054358;28;19908;-76
2022/08/09 08:00:22;;;;;;;;;;;27.10;70.80;;;;;;5051197;28;19967;-77
2022/08/09 08:02:48;;;;;;;;;;;26.50;72.40;;;;;;5054622;28;19923;-76
2022/08/09 08:05:13;;;;;;;;;;;26.60;73.70;;;;;;5053726;28;19909;-76
2022/08/09 08:07:39;;;;;;;;;;;27.70;71.70;;;;;;5054100;28;20370;-76
2022/08/09 08:10:04;;;;;;;;;;;28.40;67.80;;;;;;5053815;28;19935;-76
2022/08/09 08:12:30;;;;;;;;;;;28.50;68.00;;;;;;5053722;28;19912;-76
2022/08/09 08:14:56;;;;;;;;;;;28.20;66.80;;;;;;5053992;28;19959;-76
2022/08/09 08:17:21;;;;;;;;;;;28.20;66.80;;;;;;5052706;28;20254;-76
2022/08/09 08:19:47;;;;;;;;;;;28.00;65.10;;;;;;5053253;28;19917;-76
2022/08/09 08:22:12;;;;;;;;;;;27.80;68.10;;;;;;5053393;28;19920;-76
2022/08/09 08:24:38;;;;;;;;;;;28.10;68.40;;;;;;5053660;28;19915;-76
2022/08/09 08:27:03;;;;;;;;;;;28.90;62.90;;;;;;5056468;28;20445;-78
2022/08/09 08:29:29;;;;;;;;;;;28.80;64.20;;;;;;5055660;28;19912;-76
2022/08/09 08:31:55;;;;;;;;;;;29.30;62.30;;;;;;5052954;28;19916;-76
2022/08/09 08:34:20;;;;;;;;;;;29.90;60.70;;;;;;5053792;28;20362;-76
2022/08/09 08:36:46;;;;;;;;;;;29.60;61.90;;;;;;5062138;28;19920;-76
2022/08/09 08:39:12;;;;;;;;;;;30.30;60.70;;;;;;5053433;28;19920;-76
2022/08/09 08:41:39;;;;;;;;;;;30.00;58.30;;;;;;5053811;28;20282;-76
2022/08/09 08:44:06;;;;;;;;;;;28.60;58.90;;;;;;5053078;28;19909;-75
2022/08/09 08:46:38;;;;;;;;;;;29.30;63.40;;;;;;5053597;28;19940;-75
2022/08/09 08:49:04;;;;;;;;;;;29.90;58.20;;;;;;5052590;28;19919;-75
2022/08/09 08:51:30;;;;;;;;;;;29.80;60.20;;;;;;5055521;28;19912;-75
2022/08/09 08:53:56;;;;;;;;;;;30.90;57.80;;;;;;5051704;28;20002;-75
2022/08/09 08:56:21;;;;;;;;;;;30.70;58.30;;;;;;5053756;28;19909;-75
2022/08/09 08:58:47;;;;;;;;;;;30.60;58.00;;;;;;5052991;28;19909;-75
2022/08/09 09:01:14;;;;;;;;;;;30.50;58.60;;;;;;5053224;28;20015;-75
2022/08/09 09:03:40;;;;;;;;;;;31.20;58.60;;;;;;5052799;28;20189;-75
2022/08/09 09:06:06;;;;;;;;;;;30.50;54.90;;;;;;5053316;28;19913;-75
2022/08/09 09:08:33;;;;;;;;;;;31.50;59.20;;;;;;5053048;28;19920;-76
2022/08/09 09:11:01;;;;;;;;;;;31.60;56.20;;;;;;5053654;28;19916;-75
2022/08/09 09:13:30;;;;;;;;;;;30.90;56.80;;;;;;5051480;28;20222;-75
2022/08/09 09:15:56;;;;;;;;;;;30.50;56.60;;;;;;5053401;28;19959;-75
2022/08/09 09:18:21;;;;;;;;;;;31.40;56.90;;;;;;5049354;28;19917;-75
2022/08/09 09:20:47;;;;;;;;;;;31.90;56.60;;;;;;5059098;28;19916;-75
2022/08/09 09:23:12;;;;;;;;;;;31.50;53.60;;;;;;5051907;28;19996;-74
2022/08/09 09:25:40;;;;;;;;;;;31.40;51.80;;;;;;5052145;28;19909;-75
2022/08/09 09:28:07;;;;;;;;;;;31.80;58.60;;;;;;5051788;28;20387;-75
2022/08/09 09:30:33;;;;;;;;;;;31.80;54.60;;;;;;5051859;28;19909;-75
2022/08/09 09:33:09;;;;;;;;;;;31.60;55.10;;;;;;5049401;28;19916;-75
2022/08/09 09:35:54;;;;;;;;;;;32.40;54.10;;;;;;5050831;28;19969;-75
2022/08/09 09:38:21;;;;;;;;;;;31.80;53.30;;;;;;5051465;28;19909;-75
2022/08/09 09:40:46;;;;;;;;;;;30.20;52.20;;;;;;5052903;28;19917;-75
2022/08/09 09:43:19;;;;;;;;;;;30.40;57.50;;;;;;5051622;28;19909;-75
2022/08/09 09:45:52;;;;;;;;;;;32.00;53.60;;;;;;5052996;28;19909;-75
2022/08/09 09:48:18;;;;;;;;;;;31.60;52.80;;;;;;5052033;28;19908;-75
2022/08/09 09:50:46;;;;;;;;;;;31.50;52.60;;;;;;5050602;28;19952;-75
2022/08/09 09:53:22;;;;;;;;;;;31.10;53.10;;;;;;5043172;28;20374;-75
2022/08/09 09:55:50;;;;;;;;;;;32.20;53.00;;;;;;5052796;28;20389;-75
2022/08/09 09:58:16;;;;;;;;;;;33.10;54.30;;;;;;5044473;28;19959;-75
2022/08/09 10:00:45;;;;;;;;;;;33.70;52.50;;;;;;5045389;28;19909;-75
2022/08/09 10:03:10;;;;;;;;;;;33.10;48.80;;;;;;5048308;28;20389;-75
2022/08/09 10:05:55;;;;;;;;;;;32.30;50.50;;;;;;5052117;28;19909;-75
2022/08/09 10:08:21;;;;;;;;;;;32.50;49.50;;;;;;5047781;28;19967;-75
2022/08/09 10:10:46;;;;;;;;;;;32.40;50.10;;;;;;5052555;28;19962;-75
2022/08/09 10:13:12;;;;;;;;;;;32.30;49.60;;;;;;5051086;28;20293;-74
2022/08/09 10:15:48;;;;;;;;;;;32.20;49.60;;;;;;5052078;28;19916;-74
2022/08/09 10:18:14;;;;;;;;;;;32.90;50.60;;;;;;5049919;28;20004;-74
2022/08/09 10:20:39;;;;;;;;;;;31.90;48.00;;;;;;5051746;28;20031;-74
2022/08/09 10:23:15;;;;;;;;;;;31.90;51.20;;;;;;5050556;28;20263;-75
2022/08/09 10:25:43;;;;;;;;;;;32.80;48.80;;;;;;5049930;28;19978;-75
2022/08/09 10:28:08;;;;;;;;;;;31.50;48.70;;;;;;5050073;28;19913;-75
2022/08/09 10:30:34;;;;;;;;;;;31.60;49.30;;;;;;5050353;28;19913;-75
2022/08/09 10:33:00;;;;;;;;;;;33.50;49.00;;;;;;5049461;28;19913;-74
2022/08/09 10:35:26;;;;;;;;;;;33.90;47.40;;;;;;5051325;28;19917;-74
2022/08/09 10:37:52;;;;;;;;;;;34.20;45.90;;;;;;5052214;28;19912;-74
2022/08/09 10:40:18;;;;;;;;;;;33.60;49.80;;;;;;5052067;28;19909;-74
2022/08/09 10:42:43;;;;;;;;;;;33.60;46.70;;;;;;5050921;28;19912;-74
2022/08/09 10:45:10;;;;;;;;;;;33.30;46.40;;;;;;5051186;28;20309;-74
2022/08/09 10:47:38;;;;;;;;;;;33.70;50.70;;;;;;5052010;28;20294;-74
2022/08/09 10:50:04;;;;;;;;;;;33.90;49.30;;;;;;5050974;28;19916;-75
2022/08/09 10:52:32;;;;;;;;;;;32.90;46.30;;;;;;5049512;28;19909;-75
2022/08/09 10:55:17;;;;;;;;;;;31.80;49.40;;;;;;5051363;28;19908;-75
2022/08/09 10:57:42;;;;;;;;;;;33.30;50.60;;;;;;5053152;28;19962;-75
2022/08/09 11:00:28;;;;;;;;;;;33.70;48.90;;;;;;5051875;28;20371;-75
2022/08/09 11:02:54;;;;;;;;;;;33.40;48.70;;;;;;5043890;28;19912;-75
2022/08/09 11:05:21;;;;;;;;;;;33.10;51.90;;;;;;5038446;28;20056;-75
2022/08/09 11:07:47;;;;;;;;;;;32.10;49.90;;;;;;5049219;28;19920;-75
2022/08/09 11:10:13;;;;;;;;;;;33.20;50.50;;;;;;5050597;28;19977;-75
2022/08/09 11:12:39;;;;;;;;;;;33.30;49.00;;;;;;5050664;28;20350;-75
2022/08/09 11:15:17;;;;;;;;;;;32.80;49.10;;;;;;5050052;28;20031;-75
2022/08/09 11:17:44;;;;;;;;;;;33.50;48.70;;;;;;5043368;28;19967;-75
2022/08/09 11:20:09;;;;;;;;;;;33.40;49.10;;;;;;5052224;28;20293;-75
2022/08/09 11:22:42;;;;;;;;;;;32.50;49.90;;;;;;5047790;28;20054;-75
2022/08/09 11:25:07;;;;;;;;;;;31.30;50.00;;;;;;5048263;28;20374;-75
2022/08/09 11:27:40;;;;;;;;;;;31.20;50.40;;;;;;5063262;28;20011;-75
2022/08/09 11:30:09;;;;;;;;;;;32.50;52.10;;;;;;5050587;28;19920;-75
2022/08/09 11:32:44;;;;;;;;;;;30.80;50.10;;;;;;5050043;28;19909;-75
2022/08/09 11:35:13;;;;;;;;;;;31.50;52.90;;;;;;5047886;28;19913;-75
2022/08/09 11:37:38;;;;;;;;;;;31.20;48.00;;;;;;5057570;28;19991;-75
2022/08/09 11:40:05;;;;;;;;;;;31.30;51.70;;;;;;5050862;28;19944;-75
2022/08/09 11:42:38;;;;;;;;;;;31.10;50.70;;;;;;5049930;28;20452;-75
2022/08/09 11:45:03;;;;;;;;;;;31.10;49.70;;;;;;5049896;28;19909;-75
2022/08/09 11:47:45;;;;;;;;;;;31.10;52.10;;;;;;5048215;28;19909;-75
2022/08/09 11:50:10;;;;;;;;;;;31.20;51.10;;;;;;5055313;28;19909;-75
2022/08/09 11:52:54;;;;;;;;;;;31.60;50.00;;;;;;5051291;28;19920;-74
2022/08/09 11:55:32;;;;;;;;;;;31.40;49.40;;;;;;5043922;28;20385;-74
2022/08/09 11:58:01;;;;;;;;;;;31.00;48.30;;;;;;5050392;28;19909;-74
2022/08/09 12:00:28;;;;;;;;;;;31.30;48.90;;;;;;5049346;28;19966;-74
2022/08/09 12:02:55;;;;;;;;;;;30.60;49.20;;;;;;5049379;28;20362;-74
2022/08/09 12:05:20;;;;;;;;;;;30.70;47.10;;;;;;5049567;28;19909;-74
2022/08/09 12:07:46;;;;;;;;;;;30.20;47.30;;;;;;5050726;28;20050;-74
2022/08/09 12:10:12;;;;;;;;;;;30.00;45.60;;;;;;5050664;28;19948;-74
2022/08/09 12:12:44;;;;;;;;;;;30.30;46.60;;;;;;5049397;28;19995;-74
2022/08/09 12:15:20;;;;;;;;;;;29.80;47.70;;;;;;5049795;28;19932;-74
2022/08/09 12:17:47;;;;;;;;;;;30.40;49.00;;;;;;5049987;28;19913;-74
2022/08/09 12:20:12;;;;;;;;;;;30.60;46.70;;;;;;5056136;28;20306;-74
2022/08/09 12:22:38;;;;;;;;;;;29.40;46.70;;;;;;5049788;28;19924;-74
2022/08/09 12:25:32;;;;;;;;;;;29.80;47.30;;;;;;5047835;28;19915;-74
2022/08/09 12:28:24;;;;;;;;;;;30.00;46.70;;;;;;5046110;28;19955;-74
2022/08/09 12:30:50;;;;;;;;;;;30.90;48.00;;;;;;5046795;28;19916;-74
2022/08/09 12:33:16;;;;;;;;;;;32.40;42.70;;;;;;5051809;28;19916;-74
2022/08/09 12:35:42;;;;;;;;;;;33.50;45.50;;;;;;5068725;28;19901;-74
2022/08/09 12:38:29;;;;;;;;;;;33.50;40.60;;;;;;5075867;28;19947;-74
2022/08/09 12:40:55;;;;;;;;;;;34.60;40.10;;;;;;5074982;28;19909;-74
2022/08/09 12:43:23;;;;;;;;;;;35.10;37.10;;;;;;5075574;28;19909;-74
2022/08/09 12:45:49;;;;;;;;;;;34.70;37.20;;;;;;5075220;28;19915;-74
2022/08/09 12:48:15;;;;;;;;;;;35.30;38.70;;;;;;5071213;28;19917;-74
2022/08/09 12:50:41;;;;;;;;;;;35.70;36.50;;;;;;5051925;28;19916;-74
2022/08/09 12:53:42;;;;;;;;;;;35.80;37.50;;;;;;5051609;28;19959;-74
2022/08/09 12:56:18;;;;;;;;;;;36.60;35.90;;;;;;5031408;28;19909;-74
2022/08/09 12:59:03;;;;;;;;;;;36.80;32.70;;;;;;5050161;28;19913;-76
2022/08/09 13:01:28;;;;;;;;;;;34.90;35.40;;;;;;5052758;28;19982;-75
2022/08/09 13:04:02;;;;;;;;;;;36.00;33.80;;;;;;5056613;28;20279;-76
2022/08/09 13:06:29;;;;;;;;;;;36.30;35.50;;;;;;5065541;28;19909;-74
2022/08/09 13:08:59;;;;;;;;;;;36.50;34.60;;;;;;5068936;28;19924;-73
2022/08/09 13:11:29;;;;;;;;;;;35.80;34.80;;;;;;5069443;28;19924;-75
2022/08/09 13:13:56;;;;;;;;;;;34.80;35.60;;;;;;5066857;28;19959;-74
2022/08/09 13:16:21;;;;;;;;;;;35.60;36.10;;;;;;5068058;28;19909;-74
2022/08/09 13:18:48;;;;;;;;;;;35.80;37.60;;;;;;5070641;28;19963;-74
2022/08/09 13:21:20;;;;;;;;;;;36.20;34.20;;;;;;5052058;28;19912;-74
2022/08/09 13:23:46;;;;;;;;;;;35.60;35.70;;;;;;5046833;28;19967;-74
2022/08/09 13:26:28;;;;;;;;;;;34.90;36.30;;;;;;5051397;28;19909;-74
2022/08/09 13:29:05;;;;;;;;;;;35.80;36.20;;;;;;5058851;28;19927;-74
2022/08/09 13:31:31;;;;;;;;;;;36.60;34.80;;;;;;5052744;28;20374;-74
2022/08/09 13:33:57;;;;;;;;;;;35.80;35.00;;;;;;5051992;28;19920;-74
2022/08/09 13:36:23;;;;;;;;;;;34.20;36.10;;;;;;5053768;28;19917;-74
2022/08/09 13:38:48;;;;;;;;;;;35.50;37.90;;;;;;5055745;28;20351;-74
2022/08/09 13:41:19;;;;;;;;;;;35.70;36.00;;;;;;5051631;28;20328;-74
2022/08/09 13:43:44;;;;;;;;;;;34.40;38.20;;;;;;5051959;28;19909;-75
2022/08/09 13:46:10;;;;;;;;;;;35.50;37.80;;;;;;5051276;28;20397;-75
2022/08/09 13:48:35;;;;;;;;;;;35.10;36.70;;;;;;5052042;28;19960;-75
2022/08/09 13:51:02;;;;;;;;;;;36.30;35.90;;;;;;5051565;28;19982;-75
2022/08/09 13:53:27;;;;;;;;;;;36.70;34.80;;;;;;5048078;28;19917;-75
2022/08/09 13:55:52;;;;;;;;;;;36.20;36.00;;;;;;5044761;28;19920;-75
2022/08/09 13:58:18;;;;;;;;;;;37.00;34.90;;;;;;5052743;28;19916;-75
2022/08/09 14:00:43;;;;;;;;;;;36.30;34.30;;;;;;5048243;28;19913;-75
2022/08/09 14:03:09;;;;;;;;;;;34.80;36.30;;;;;;5054234;28;19952;-75
2022/08/09 14:05:36;;;;;;;;;;;36.70;36.50;;;;;;5073373;28;20366;-74
2022/08/09 14:08:03;;;;;;;;;;;35.60;34.70;;;;;;5073766;28;19912;-75
2022/08/09 14:10:28;;;;;;;;;;;35.00;35.00;;;;;;5074823;28;19908;-74
2022/08/09 14:12:54;;;;;;;;;;;34.50;38.10;;;;;;5073105;28;19968;-74
2022/08/09 14:15:19;;;;;;;;;;;34.40;37.00;;;;;;5074348;28;19944;-74
2022/08/09 14:17:45;;;;;;;;;;;34.60;38.70;;;;;;5073763;28;19975;-74